sensor_id;sensor_type;location;lat;lon;timestamp;temperature;humidity
77305;DHT22;66364;52.622;7.746;2023-04-03T00:01:42;3.80;99.90
77305;DHT22;66364;52.622;7.746;2023-04-03T00:03:43;3.80;99.90
77305;DHT22;66364;52.622;7.746;2023-04-03T00:05:45;3.40;99.90
77305;DHT22;66364;52.622;7.746;2023-04-03T00:07:46;3.50;99.90
77305;DHT22;66364;52.622;7.746;2023-04-03T00:09:47;3.90;99.90
77305;DHT22;66364;52.622;7.746;2023-04-03T00:11:48;3.80;99.90
77305;DHT22;66364;52.622;7.746;2023-04-03T00:13:49;3.70;99.90
77305;DHT22;66364;52.622;7.746;2023-04-03T00:15:50;3.40;99.90
77305;DHT22;66364;52.622;7.746;2023-04-03T00:17:51;3.50;99.90
77305;DHT22;66364;52.622;7.746;2023-04-03T00:19:52;3.10;99.90
77305;DHT22;66364;52.622;7.746;2023-04-03T00:21:53;3.50;99.90
77305;DHT22;66364;52.622;7.746;2023-04-03T00:23:54;3.10;99.90
77305;DHT22;66364;52.622;7.746;2023-04-03T00:25:55;3.30;99.90
77305;DHT22;66364;52.622;7.746;2023-04-03T00:27:59;3.40;99.90
77305;DHT22;66364;52.622;7.746;2023-04-03T00:29:59;3.20;99.90
77305;DHT22;66364;52.622;7.746;2023-04-03T00:32:00;3.10;99.90
77305;DHT22;66364;52.622;7.746;2023-04-03T00:34:01;3.30;99.90
77305;DHT22;66364;52.622;7.746;2023-04-03T00:36:05;3.00;99.90
77305;DHT22;66364;52.622;7.746;2023-04-03T00:38:06;3.20;99.90
77305;DHT22;66364;52.622;7.746;2023-04-03T00:40:08;3.10;99.90
77305;DHT22;66364;52.622;7.746;2023-04-03T00:42:10;2.90;99.90
77305;DHT22;66364;52.622;7.746;2023-04-03T00:46:36;2.90;99.90
77305;DHT22;66364;52.622;7.746;2023-04-03T00:48:45;3.10;99.90
77305;DHT22;66364;52.622;7.746;2023-04-03T00:50:47;3.00;99.90
77305;DHT22;66364;52.622;7.746;2023-04-03T00:52:48;2.80;99.90
77305;DHT22;66364;52.622;7.746;2023-04-03T00:54:51;2.80;99.90
77305;DHT22;66364;52.622;7.746;2023-04-03T00:56:55;2.30;99.90
77305;DHT22;66364;52.622;7.746;2023-04-03T00:59:22;2.70;99.90
77305;DHT22;66364;52.622;7.746;2023-04-03T01:01:07;2.60;99.90
77305;DHT22;66364;52.622;7.746;2023-04-03T01:03:08;2.90;99.90
77305;DHT22;66364;52.622;7.746;2023-04-03T01:05:09;2.80;99.90
77305;DHT22;66364;52.622;7.746;2023-04-03T01:07:15;2.60;99.90
77305;DHT22;66364;52.622;7.746;2023-04-03T01:09:18;2.90;99.90
77305;DHT22;66364;52.622;7.746;2023-04-03T01:11:20;2.40;99.90
77305;DHT22;66364;52.622;7.746;2023-04-03T01:13:32;2.40;99.90
77305;DHT22;66364;52.622;7.746;2023-04-03T01:15:28;2.40;99.90
77305;DHT22;66364;52.622;7.746;2023-04-03T01:19:36;1.80;99.90
77305;DHT22;66364;52.622;7.746;2023-04-03T01:21:54;2.60;99.90
77305;DHT22;66364;52.622;7.746;2023-04-03T01:25:59;2.40;99.90
77305;DHT22;66364;52.622;7.746;2023-04-03T01:28:00;2.30;99.90
77305;DHT22;66364;52.622;7.746;2023-04-03T01:30:02;2.40;99.90
77305;DHT22;66364;52.622;7.746;2023-04-03T01:32:03;2.10;99.90
77305;DHT22;66364;52.622;7.746;2023-04-03T01:34:04;2.30;99.90
77305;DHT22;66364;52.622;7.746;2023-04-03T01:36:06;2.20;99.90
77305;DHT22;66364;52.622;7.746;2023-04-03T01:38:07;2.10;99.90
77305;DHT22;66364;52.622;7.746;2023-04-03T01:40:09;2.30;99.90
77305;DHT22;66364;52.622;7.746;2023-04-03T01:42:10;2.30;99.90
77305;DHT22;66364;52.622;7.746;2023-04-03T01:44:11;2.30;99.90
77305;DHT22;66364;52.622;7.746;2023-04-03T01:46:12;2.10;99.90
77305;DHT22;66364;52.622;7.746;2023-04-03T01:48:13;2.10;99.90
77305;DHT22;66364;52.622;7.746;2023-04-03T01:50:14;2.20;99.90
77305;DHT22;66364;52.622;7.746;2023-04-03T01:52:15;2.20;99.90
77305;DHT22;66364;52.622;7.746;2023-04-03T01:54:16;2.30;99.90
77305;DHT22;66364;52.622;7.746;2023-04-03T01:56:17;2.10;99.90
77305;DHT22;66364;52.622;7.746;2023-04-03T01:58:18;2.20;99.90
77305;DHT22;66364;52.622;7.746;2023-04-03T02:00:20;2.00;99.90
77305;DHT22;66364;52.622;7.746;2023-04-03T02:02:20;2.30;99.90
77305;DHT22;66364;52.622;7.746;2023-04-03T02:04:21;2.20;99.90
77305;DHT22;66364;52.622;7.746;2023-04-03T02:06:23;2.20;99.90
77305;DHT22;66364;52.622;7.746;2023-04-03T02:08:24;2.20;99.90
77305;DHT22;66364;52.622;7.746;2023-04-03T02:10:25;2.10;99.90
77305;DHT22;66364;52.622;7.746;2023-04-03T02:12:25;1.90;99.90
77305;DHT22;66364;52.622;7.746;2023-04-03T02:14:27;2.20;99.90
77305;DHT22;66364;52.622;7.746;2023-04-03T02:16:28;2.10;99.90
77305;DHT22;66364;52.622;7.746;2023-04-03T02:18:28;2.10;99.90
77305;DHT22;66364;52.622;7.746;2023-04-03T02:20:30;2.00;99.90
77305;DHT22;66364;52.622;7.746;2023-04-03T02:22:32;2.10;99.90
77305;DHT22;66364;52.622;7.746;2023-04-03T02:24:33;2.00;99.90
77305;DHT22;66364;52.622;7.746;2023-04-03T02:26:34;1.90;99.90
77305;DHT22;66364;52.622;7.746;2023-04-03T02:28:35;1.90;99.90
77305;DHT22;66364;52.622;7.746;2023-04-03T02:30:36;1.90;99.90
77305;DHT22;66364;52.622;7.746;2023-04-03T02:32:41;1.60;99.90
77305;DHT22;66364;52.622;7.746;2023-04-03T02:34:42;1.60;99.90
77305;DHT22;66364;52.622;7.746;2023-04-03T02:36:44;1.70;99.90
77305;DHT22;66364;52.622;7.746;2023-04-03T02:38:44;1.70;99.90
77305;DHT22;66364;52.622;7.746;2023-04-03T02:40:45;1.60;99.90
77305;DHT22;66364;52.622;7.746;2023-04-03T02:42:46;1.90;99.90
77305;DHT22;66364;52.622;7.746;2023-04-03T02:44:47;1.60;99.90
77305;DHT22;66364;52.622;7.746;2023-04-03T02:46:48;1.60;99.90
77305;DHT22;66364;52.622;7.746;2023-04-03T02:48:50;1.40;99.90
77305;DHT22;66364;52.622;7.746;2023-04-03T02:50:51;1.30;99.90
77305;DHT22;66364;52.622;7.746;2023-04-03T02:52:52;1.50;99.90
77305;DHT22;66364;52.622;7.746;2023-04-03T02:54:54;1.50;99.90
77305;DHT22;66364;52.622;7.746;2023-04-03T02:56:54;1.40;99.90
77305;DHT22;66364;52.622;7.746;2023-04-03T02:58:55;1.50;99.90
77305;DHT22;66364;52.622;7.746;2023-04-03T03:00:57;1.50;99.90
77305;DHT22;66364;52.622;7.746;2023-04-03T03:02:58;1.40;99.90
77305;DHT22;66364;52.622;7.746;2023-04-03T03:04:59;1.50;99.90
77305;DHT22;66364;52.622;7.746;2023-04-03T03:07:00;1.30;99.90
77305;DHT22;66364;52.622;7.746;2023-04-03T03:09:00;1.20;99.90
77305;DHT22;66364;52.622;7.746;2023-04-03T03:11:02;1.10;99.90
77305;DHT22;66364;52.622;7.746;2023-04-03T03:13:03;1.50;99.90
77305;DHT22;66364;52.622;7.746;2023-04-03T03:15:05;1.20;99.90
77305;DHT22;66364;52.622;7.746;2023-04-03T03:17:07;1.20;99.90
77305;DHT22;66364;52.622;7.746;2023-04-03T03:19:08;1.10;99.90
77305;DHT22;66364;52.622;7.746;2023-04-03T03:21:10;1.10;99.90
77305;DHT22;66364;52.622;7.746;2023-04-03T03:23:11;1.20;99.90
77305;DHT22;66364;52.622;7.746;2023-04-03T03:25:11;1.20;99.90
77305;DHT22;66364;52.622;7.746;2023-04-03T03:27:13;1.20;99.90
77305;DHT22;66364;52.622;7.746;2023-04-03T03:29:14;1.10;99.90
77305;DHT22;66364;52.622;7.746;2023-04-03T03:31:15;1.10;99.90
77305;DHT22;66364;52.622;7.746;2023-04-03T03:33:17;0.90;99.90
77305;DHT22;66364;52.622;7.746;2023-04-03T03:35:18;1.00;99.90
77305;DHT22;66364;52.622;7.746;2023-04-03T03:37:20;1.00;99.90
77305;DHT22;66364;52.622;7.746;2023-04-03T03:39:21;1.00;99.90
77305;DHT22;66364;52.622;7.746;2023-04-03T03:41:22;1.00;99.90
77305;DHT22;66364;52.622;7.746;2023-04-03T03:43:23;1.00;99.90
77305;DHT22;66364;52.622;7.746;2023-04-03T03:45:24;0.80;99.90
77305;DHT22;66364;52.622;7.746;2023-04-03T03:47:25;0.60;99.90
77305;DHT22;66364;52.622;7.746;2023-04-03T03:49:26;1.00;99.90
77305;DHT22;66364;52.622;7.746;2023-04-03T03:51:27;0.90;99.90
77305;DHT22;66364;52.622;7.746;2023-04-03T03:53:28;1.00;99.90
77305;DHT22;66364;52.622;7.746;2023-04-03T03:55:29;0.90;99.90
77305;DHT22;66364;52.622;7.746;2023-04-03T03:57:30;1.00;99.90
77305;DHT22;66364;52.622;7.746;2023-04-03T03:59:31;0.80;99.90
77305;DHT22;66364;52.622;7.746;2023-04-03T04:01:32;0.90;99.90
77305;DHT22;66364;52.622;7.746;2023-04-03T04:03:34;0.70;99.90
77305;DHT22;66364;52.622;7.746;2023-04-03T04:05:34;0.90;99.90
77305;DHT22;66364;52.622;7.746;2023-04-03T04:07:35;0.80;99.90
77305;DHT22;66364;52.622;7.746;2023-04-03T04:09:36;0.70;99.90
77305;DHT22;66364;52.622;7.746;2023-04-03T04:11:37;0.80;99.90
77305;DHT22;66364;52.622;7.746;2023-04-03T04:13:38;0.90;99.90
77305;DHT22;66364;52.622;7.746;2023-04-03T04:15:38;0.90;99.90
77305;DHT22;66364;52.622;7.746;2023-04-03T04:17:39;0.70;99.90
77305;DHT22;66364;52.622;7.746;2023-04-03T04:19:40;0.80;99.90
77305;DHT22;66364;52.622;7.746;2023-04-03T04:21:46;0.80;99.90
77305;DHT22;66364;52.622;7.746;2023-04-03T04:23:47;0.80;99.90
77305;DHT22;66364;52.622;7.746;2023-04-03T04:25:49;0.60;99.90
77305;DHT22;66364;52.622;7.746;2023-04-03T04:27:50;0.80;99.90
77305;DHT22;66364;52.622;7.746;2023-04-03T04:29:51;0.60;99.90
77305;DHT22;66364;52.622;7.746;2023-04-03T04:31:52;0.40;99.90
77305;DHT22;66364;52.622;7.746;2023-04-03T04:33:54;0.40;99.90
77305;DHT22;66364;52.622;7.746;2023-04-03T04:35:54;0.60;99.90
77305;DHT22;66364;52.622;7.746;2023-04-03T04:37:56;0.30;99.90
77305;DHT22;66364;52.622;7.746;2023-04-03T04:39:57;0.50;99.90
77305;DHT22;66364;52.622;7.746;2023-04-03T04:41:57;0.50;99.90
77305;DHT22;66364;52.622;7.746;2023-04-03T04:43:58;0.50;99.90
77305;DHT22;66364;52.622;7.746;2023-04-03T04:46:09;0.60;99.90
77305;DHT22;66364;52.622;7.746;2023-04-03T04:48:14;0.10;99.90
77305;DHT22;66364;52.622;7.746;2023-04-03T04:50:16;0.20;99.90
77305;DHT22;66364;52.622;7.746;2023-04-03T04:52:17;0.50;99.90
77305;DHT22;66364;52.622;7.746;2023-04-03T04:54:18;0.40;99.90
77305;DHT22;66364;52.622;7.746;2023-04-03T04:56:19;0.20;99.90
77305;DHT22;66364;52.622;7.746;2023-04-03T04:58:20;0.50;99.90
77305;DHT22;66364;52.622;7.746;2023-04-03T05:00:21;0.40;99.90
77305;DHT22;66364;52.622;7.746;2023-04-03T05:02:22;0.30;99.90
77305;DHT22;66364;52.622;7.746;2023-04-03T05:04:23;0.10;99.90
77305;DHT22;66364;52.622;7.746;2023-04-03T05:06:24;0.40;99.90
77305;DHT22;66364;52.622;7.746;2023-04-03T05:08:26;0.20;99.90
77305;DHT22;66364;52.622;7.746;2023-04-03T05:10:27;0.50;99.90
77305;DHT22;66364;52.622;7.746;2023-04-03T05:12:29;0.30;99.90
77305;DHT22;66364;52.622;7.746;2023-04-03T05:14:29;0.50;99.90
77305;DHT22;66364;52.622;7.746;2023-04-03T05:16:31;0.50;99.90
77305;DHT22;66364;52.622;7.746;2023-04-03T05:18:31;0.30;99.90
77305;DHT22;66364;52.622;7.746;2023-04-03T05:20:33;0.30;99.90
77305;DHT22;66364;52.622;7.746;2023-04-03T05:22:34;0.40;99.90
77305;DHT22;66364;52.622;7.746;2023-04-03T05:24:35;0.50;99.90
77305;DHT22;66364;52.622;7.746;2023-04-03T05:26:36;0.60;99.90
77305;DHT22;66364;52.622;7.746;2023-04-03T05:28:37;0.40;99.90
77305;DHT22;66364;52.622;7.746;2023-04-03T05:30:44;0.40;99.90
77305;DHT22;66364;52.622;7.746;2023-04-03T05:32:46;0.30;99.90
77305;DHT22;66364;52.622;7.746;2023-04-03T05:34:47;0.50;99.90
77305;DHT22;66364;52.622;7.746;2023-04-03T05:36:48;0.50;99.90
77305;DHT22;66364;52.622;7.746;2023-04-03T05:38:49;0.50;99.90
77305;DHT22;66364;52.622;7.746;2023-04-03T05:40:50;0.50;99.90
77305;DHT22;66364;52.622;7.746;2023-04-03T05:42:51;0.50;99.90
77305;DHT22;66364;52.622;7.746;2023-04-03T05:44:52;0.60;99.90
77305;DHT22;66364;52.622;7.746;2023-04-03T05:46:54;0.60;99.90
77305;DHT22;66364;52.622;7.746;2023-04-03T05:48:55;0.60;99.90
77305;DHT22;66364;52.622;7.746;2023-04-03T05:50:56;0.80;99.90
77305;DHT22;66364;52.622;7.746;2023-04-03T05:52:59;0.50;99.90
77305;DHT22;66364;52.622;7.746;2023-04-03T05:55:00;0.70;99.90
77305;DHT22;66364;52.622;7.746;2023-04-03T05:57:01;0.60;99.90
77305;DHT22;66364;52.622;7.746;2023-04-03T05:59:02;0.60;99.90
77305;DHT22;66364;52.622;7.746;2023-04-03T06:01:04;0.70;99.90
77305;DHT22;66364;52.622;7.746;2023-04-03T06:03:05;1.00;99.90
77305;DHT22;66364;52.622;7.746;2023-04-03T06:05:06;1.00;99.90
77305;DHT22;66364;52.622;7.746;2023-04-03T06:07:14;1.00;99.90
77305;DHT22;66364;52.622;7.746;2023-04-03T06:09:12;1.00;99.90
77305;DHT22;66364;52.622;7.746;2023-04-03T06:11:13;1.00;99.90
77305;DHT22;66364;52.622;7.746;2023-04-03T06:13:14;1.00;99.90
77305;DHT22;66364;52.622;7.746;2023-04-03T06:15:15;1.10;99.90
77305;DHT22;66364;52.622;7.746;2023-04-03T06:17:17;1.10;99.90
77305;DHT22;66364;52.622;7.746;2023-04-03T06:19:18;1.00;99.90
77305;DHT22;66364;52.622;7.746;2023-04-03T06:21:19;1.20;99.90
77305;DHT22;66364;52.622;7.746;2023-04-03T06:23:20;1.20;99.90
77305;DHT22;66364;52.622;7.746;2023-04-03T06:25:21;1.20;99.90
77305;DHT22;66364;52.622;7.746;2023-04-03T06:27:22;1.20;99.90
77305;DHT22;66364;52.622;7.746;2023-04-03T06:29:24;1.50;99.90
77305;DHT22;66364;52.622;7.746;2023-04-03T06:31:25;1.30;99.90
77305;DHT22;66364;52.622;7.746;2023-04-03T06:33:25;1.40;99.90
77305;DHT22;66364;52.622;7.746;2023-04-03T06:35:26;1.50;99.90
77305;DHT22;66364;52.622;7.746;2023-04-03T06:37:27;1.70;99.90
77305;DHT22;66364;52.622;7.746;2023-04-03T06:39:28;1.70;99.90
77305;DHT22;66364;52.622;7.746;2023-04-03T06:41:29;1.60;99.90
77305;DHT22;66364;52.622;7.746;2023-04-03T06:43:30;1.60;99.90
77305;DHT22;66364;52.622;7.746;2023-04-03T06:45:31;2.00;99.90
77305;DHT22;66364;52.622;7.746;2023-04-03T06:47:32;1.90;99.90
77305;DHT22;66364;52.622;7.746;2023-04-03T06:49:33;1.80;99.90
77305;DHT22;66364;52.622;7.746;2023-04-03T06:51:36;2.10;99.90
77305;DHT22;66364;52.622;7.746;2023-04-03T06:53:37;2.20;99.90
77305;DHT22;66364;52.622;7.746;2023-04-03T06:55:38;2.20;99.90
77305;DHT22;66364;52.622;7.746;2023-04-03T06:57:39;2.60;99.90
77305;DHT22;66364;52.622;7.746;2023-04-03T06:59:40;2.60;99.90
77305;DHT22;66364;52.622;7.746;2023-04-03T07:01:41;2.80;99.90
77305;DHT22;66364;52.622;7.746;2023-04-03T07:03:43;2.70;99.90
77305;DHT22;66364;52.622;7.746;2023-04-03T07:05:44;3.20;99.90
77305;DHT22;66364;52.622;7.746;2023-04-03T07:07:45;2.80;99.90
77305;DHT22;66364;52.622;7.746;2023-04-03T07:09:46;2.90;99.90
77305;DHT22;66364;52.622;7.746;2023-04-03T07:11:47;2.90;99.90
77305;DHT22;66364;52.622;7.746;2023-04-03T07:13:48;3.10;99.90
77305;DHT22;66364;52.622;7.746;2023-04-03T07:15:49;3.20;99.90
77305;DHT22;66364;52.622;7.746;2023-04-03T07:17:50;3.50;99.90
77305;DHT22;66364;52.622;7.746;2023-04-03T07:19:51;3.70;99.90
77305;DHT22;66364;52.622;7.746;2023-04-03T07:21:52;3.50;99.90
77305;DHT22;66364;52.622;7.746;2023-04-03T07:23:53;3.80;99.90
77305;DHT22;66364;52.622;7.746;2023-04-03T07:25:55;4.20;99.90
77305;DHT22;66364;52.622;7.746;2023-04-03T07:27:56;4.00;99.90
77305;DHT22;66364;52.622;7.746;2023-04-03T07:29:57;4.10;99.90
77305;DHT22;66364;52.622;7.746;2023-04-03T07:31:58;4.00;99.90
77305;DHT22;66364;52.622;7.746;2023-04-03T07:33:59;3.90;99.90
77305;DHT22;66364;52.622;7.746;2023-04-03T07:36:00;4.20;99.90
77305;DHT22;66364;52.622;7.746;2023-04-03T07:38:01;4.00;99.90
77305;DHT22;66364;52.622;7.746;2023-04-03T07:40:03;4.20;99.90
77305;DHT22;66364;52.622;7.746;2023-04-03T07:42:04;4.30;99.90
77305;DHT22;66364;52.622;7.746;2023-04-03T07:44:05;4.60;99.90
77305;DHT22;66364;52.622;7.746;2023-04-03T07:46:06;4.30;99.90
77305;DHT22;66364;52.622;7.746;2023-04-03T07:48:11;4.20;99.20
77305;DHT22;66364;52.622;7.746;2023-04-03T07:50:12;4.20;99.20
77305;DHT22;66364;52.622;7.746;2023-04-03T07:52:14;4.20;98.80
77305;DHT22;66364;52.622;7.746;2023-04-03T07:54:15;4.40;93.60
77305;DHT22;66364;52.622;7.746;2023-04-03T07:56:16;4.90;92.20
77305;DHT22;66364;52.622;7.746;2023-04-03T07:58:18;4.70;89.20
77305;DHT22;66364;52.622;7.746;2023-04-03T08:00:19;5.10;82.80
77305;DHT22;66364;52.622;7.746;2023-04-03T08:02:21;5.00;75.30
77305;DHT22;66364;52.622;7.746;2023-04-03T08:04:22;4.90;78.60
77305;DHT22;66364;52.622;7.746;2023-04-03T08:06:23;5.10;77.00
77305;DHT22;66364;52.622;7.746;2023-04-03T08:08:24;5.40;72.90
77305;DHT22;66364;52.622;7.746;2023-04-03T08:10:25;5.60;71.20
77305;DHT22;66364;52.622;7.746;2023-04-03T08:12:26;5.30;70.40
77305;DHT22;66364;52.622;7.746;2023-04-03T08:14:32;5.50;68.10
77305;DHT22;66364;52.622;7.746;2023-04-03T08:16:34;5.30;68.80
77305;DHT22;66364;52.622;7.746;2023-04-03T08:18:36;5.50;67.20
77305;DHT22;66364;52.622;7.746;2023-04-03T08:20:38;5.80;69.90
77305;DHT22;66364;52.622;7.746;2023-04-03T08:22:39;5.80;64.70
77305;DHT22;66364;52.622;7.746;2023-04-03T08:24:40;5.60;62.60
77305;DHT22;66364;52.622;7.746;2023-04-03T08:26:42;5.50;62.40
77305;DHT22;66364;52.622;7.746;2023-04-03T08:28:43;5.40;63.20
77305;DHT22;66364;52.622;7.746;2023-04-03T08:30:44;5.50;60.30
77305;DHT22;66364;52.622;7.746;2023-04-03T08:32:46;5.80;62.80
77305;DHT22;66364;52.622;7.746;2023-04-03T08:34:47;6.10;59.40
77305;DHT22;66364;52.622;7.746;2023-04-03T08:36:48;6.20;56.70
77305;DHT22;66364;52.622;7.746;2023-04-03T08:38:50;5.90;58.80
77305;DHT22;66364;52.622;7.746;2023-04-03T08:45:48;6.50;52.80
77305;DHT22;66364;52.622;7.746;2023-04-03T08:47:56;6.50;53.10
77305;DHT22;66364;52.622;7.746;2023-04-03T08:50:00;6.80;50.30
77305;DHT22;66364;52.622;7.746;2023-04-03T08:52:11;6.50;51.70
77305;DHT22;66364;52.622;7.746;2023-04-03T08:54:28;7.30;50.80
77305;DHT22;66364;52.622;7.746;2023-04-03T08:56:21;7.30;47.80
77305;DHT22;66364;52.622;7.746;2023-04-03T08:58:28;7.10;47.00
77305;DHT22;66364;52.622;7.746;2023-04-03T09:00:37;7.30;46.00
77305;DHT22;66364;52.622;7.746;2023-04-03T09:02:56;7.70;50.00
77305;DHT22;66364;52.622;7.746;2023-04-03T09:04:54;7.70;45.10
77305;DHT22;66364;52.622;7.746;2023-04-03T09:07:01;8.00;40.10
77305;DHT22;66364;52.622;7.746;2023-04-03T09:09:15;7.90;36.80
77305;DHT22;66364;52.622;7.746;2023-04-03T09:16:05;8.50;34.70
77305;DHT22;66364;52.622;7.746;2023-04-03T09:18:23;8.80;34.00
77305;DHT22;66364;52.622;7.746;2023-04-03T09:22:50;9.10;34.50
77305;DHT22;66364;52.622;7.746;2023-04-03T09:25:00;9.50;29.40
77305;DHT22;66364;52.622;7.746;2023-04-03T09:27:04;9.20;27.80
77305;DHT22;66364;52.622;7.746;2023-04-03T09:29:07;9.60;26.60
77305;DHT22;66364;52.622;7.746;2023-04-03T09:33:20;9.00;27.90
77305;DHT22;66364;52.622;7.746;2023-04-03T09:35:33;9.30;27.40
77305;DHT22;66364;52.622;7.746;2023-04-03T09:37:43;9.70;25.00
77305;DHT22;66364;52.622;7.746;2023-04-03T09:39:52;9.70;26.00
77305;DHT22;66364;52.622;7.746;2023-04-03T09:42:06;10.20;25.90
77305;DHT22;66364;52.622;7.746;2023-04-03T09:44:20;10.00;22.20
77305;DHT22;66364;52.622;7.746;2023-04-03T09:46:30;9.80;24.40
77305;DHT22;66364;52.622;7.746;2023-04-03T09:48:24;9.80;25.80
77305;DHT22;66364;52.622;7.746;2023-04-03T09:50:25;10.70;22.50
77305;DHT22;66364;52.622;7.746;2023-04-03T09:52:26;10.80;20.90
77305;DHT22;66364;52.622;7.746;2023-04-03T09:54:36;10.70;20.60
77305;DHT22;66364;52.622;7.746;2023-04-03T09:56:37;11.40;22.20
77305;DHT22;66364;52.622;7.746;2023-04-03T09:58:39;12.00;22.00
77305;DHT22;66364;52.622;7.746;2023-04-03T10:00:40;11.80;19.80
77305;DHT22;66364;52.622;7.746;2023-04-03T10:02:41;11.80;20.50
77305;DHT22;66364;52.622;7.746;2023-04-03T10:04:42;11.40;18.20
77305;DHT22;66364;52.622;7.746;2023-04-03T10:06:53;11.80;20.90
77305;DHT22;66364;52.622;7.746;2023-04-03T10:09:02;12.50;16.70
77305;DHT22;66364;52.622;7.746;2023-04-03T10:11:13;12.20;17.30
77305;DHT22;66364;52.622;7.746;2023-04-03T10:13:16;11.50;18.30
77305;DHT22;66364;52.622;7.746;2023-04-03T10:15:36;11.50;20.40
77305;DHT22;66364;52.622;7.746;2023-04-03T10:17:49;12.40;21.10
77305;DHT22;66364;52.622;7.746;2023-04-03T10:22:21;13.20;17.70
77305;DHT22;66364;52.622;7.746;2023-04-03T10:26:52;13.00;16.20
77305;DHT22;66364;52.622;7.746;2023-04-03T10:36:41;12.60;16.40
77305;DHT22;66364;52.622;7.746;2023-04-03T10:38:48;13.00;19.30
77305;DHT22;66364;52.622;7.746;2023-04-03T10:54:08;13.70;14.30
77305;DHT22;66364;52.622;7.746;2023-04-03T10:58:45;12.90;15.60
77305;DHT22;66364;52.622;7.746;2023-04-03T11:00:48;12.90;17.80
77305;DHT22;66364;52.622;7.746;2023-04-03T11:02:59;13.20;16.10
77305;DHT22;66364;52.622;7.746;2023-04-03T11:05:04;13.30;14.10
77305;DHT22;66364;52.622;7.746;2023-04-03T11:07:17;13.30;13.50
77305;DHT22;66364;52.622;7.746;2023-04-03T11:09:26;12.80;13.40
77305;DHT22;66364;52.622;7.746;2023-04-03T11:11:30;12.70;13.90
77305;DHT22;66364;52.622;7.746;2023-04-03T11:13:49;13.50;13.50
77305;DHT22;66364;52.622;7.746;2023-04-03T11:15:49;13.50;14.00
77305;DHT22;66364;52.622;7.746;2023-04-03T11:18:13;13.40;12.60
77305;DHT22;66364;52.622;7.746;2023-04-03T11:20:30;13.90;13.00
77305;DHT22;66364;52.622;7.746;2023-04-03T11:22:43;13.80;12.30
77305;DHT22;66364;52.622;7.746;2023-04-03T11:27:17;14.30;11.00
77305;DHT22;66364;52.622;7.746;2023-04-03T11:29:29;14.40;12.60
77305;DHT22;66364;52.622;7.746;2023-04-03T11:33:58;13.70;12.80
77305;DHT22;66364;52.622;7.746;2023-04-03T11:38:19;13.60;11.50
77305;DHT22;66364;52.622;7.746;2023-04-03T11:40:33;13.40;10.20
77305;DHT22;66364;52.622;7.746;2023-04-03T11:42:42;13.90;11.90
77305;DHT22;66364;52.622;7.746;2023-04-03T11:44:43;13.90;10.20
77305;DHT22;66364;52.622;7.746;2023-04-03T11:46:58;12.50;10.80
77305;DHT22;66364;52.622;7.746;2023-04-03T11:49:00;12.10;12.70
77305;DHT22;66364;52.622;7.746;2023-04-03T12:02:54;11.10;15.90
77305;DHT22;66364;52.622;7.746;2023-04-03T12:07:35;12.40;12.90
77305;DHT22;66364;52.622;7.746;2023-04-03T12:12:32;12.50;14.00
77305;DHT22;66364;52.622;7.746;2023-04-03T12:14:34;12.40;12.60
77305;DHT22;66364;52.622;7.746;2023-04-03T12:20:55;13.40;16.00
77305;DHT22;66364;52.622;7.746;2023-04-03T12:23:25;13.30;15.00
77305;DHT22;66364;52.622;7.746;2023-04-03T12:27:40;14.20;10.50
77305;DHT22;66364;52.622;7.746;2023-04-03T12:36:58;13.90;13.60
77305;DHT22;66364;52.622;7.746;2023-04-03T12:39:02;14.00;11.50
77305;DHT22;66364;52.622;7.746;2023-04-03T12:41:18;13.00;9.40
77305;DHT22;66364;52.622;7.746;2023-04-03T12:48:22;11.70;12.70
77305;DHT22;66364;52.622;7.746;2023-04-03T12:50:30;12.00;13.70
77305;DHT22;66364;52.622;7.746;2023-04-03T12:52:36;11.80;12.50
77305;DHT22;66364;52.622;7.746;2023-04-03T12:54:39;12.20;14.20
77305;DHT22;66364;52.622;7.746;2023-04-03T12:56:40;12.60;15.30
77305;DHT22;66364;52.622;7.746;2023-04-03T12:58:41;13.30;12.30
77305;DHT22;66364;52.622;7.746;2023-04-03T13:00:43;13.70;12.20
77305;DHT22;66364;52.622;7.746;2023-04-03T13:02:44;13.80;10.60
77305;DHT22;66364;52.622;7.746;2023-04-03T13:04:46;12.90;10.60
77305;DHT22;66364;52.622;7.746;2023-04-03T13:06:49;12.70;10.80
77305;DHT22;66364;52.622;7.746;2023-04-03T13:08:56;12.60;10.20
77305;DHT22;66364;52.622;7.746;2023-04-03T13:11:06;12.60;13.10
77305;DHT22;66364;52.622;7.746;2023-04-03T13:13:10;13.00;13.00
77305;DHT22;66364;52.622;7.746;2023-04-03T13:15:16;13.30;12.30
77305;DHT22;66364;52.622;7.746;2023-04-03T13:17:17;12.90;11.40
77305;DHT22;66364;52.622;7.746;2023-04-03T13:19:18;12.60;11.70
77305;DHT22;66364;52.622;7.746;2023-04-03T13:21:30;12.60;10.00
77305;DHT22;66364;52.622;7.746;2023-04-03T13:23:35;12.40;10.00
77305;DHT22;66364;52.622;7.746;2023-04-03T13:25:41;12.30;12.40
77305;DHT22;66364;52.622;7.746;2023-04-03T13:27:42;11.80;13.00
77305;DHT22;66364;52.622;7.746;2023-04-03T13:29:45;12.40;13.50
77305;DHT22;66364;52.622;7.746;2023-04-03T13:31:51;12.70;12.80
77305;DHT22;66364;52.622;7.746;2023-04-03T13:33:58;13.00;11.90
77305;DHT22;66364;52.622;7.746;2023-04-03T13:36:05;13.10;13.10
77305;DHT22;66364;52.622;7.746;2023-04-03T13:38:24;12.70;12.80
77305;DHT22;66364;52.622;7.746;2023-04-03T13:40:25;12.40;14.70
77305;DHT22;66364;52.622;7.746;2023-04-03T13:42:29;12.60;13.10
77305;DHT22;66364;52.622;7.746;2023-04-03T13:44:34;12.60;10.70
77305;DHT22;66364;52.622;7.746;2023-04-03T13:46:35;12.60;14.00
77305;DHT22;66364;52.622;7.746;2023-04-03T13:48:49;12.50;16.40
77305;DHT22;66364;52.622;7.746;2023-04-03T13:53:03;11.80;12.80
77305;DHT22;66364;52.622;7.746;2023-04-03T13:55:26;11.50;14.30
77305;DHT22;66364;52.622;7.746;2023-04-03T13:57:28;11.50;15.10
77305;DHT22;66364;52.622;7.746;2023-04-03T13:59:47;11.40;13.80
77305;DHT22;66364;52.622;7.746;2023-04-03T14:04:20;11.70;13.20
77305;DHT22;66364;52.622;7.746;2023-04-03T14:06:21;12.30;13.40
77305;DHT22;66364;52.622;7.746;2023-04-03T14:08:22;12.00;11.90
77305;DHT22;66364;52.622;7.746;2023-04-03T14:10:24;12.40;12.50
77305;DHT22;66364;52.622;7.746;2023-04-03T14:12:28;13.00;12.60
77305;DHT22;66364;52.622;7.746;2023-04-03T14:14:33;13.10;10.60
77305;DHT22;66364;52.622;7.746;2023-04-03T14:16:37;12.90;12.10
77305;DHT22;66364;52.622;7.746;2023-04-03T14:18:39;12.80;11.50
77305;DHT22;66364;52.622;7.746;2023-04-03T14:20:40;12.40;10.70
77305;DHT22;66364;52.622;7.746;2023-04-03T14:22:41;12.40;12.00
77305;DHT22;66364;52.622;7.746;2023-04-03T14:24:43;12.80;11.20
77305;DHT22;66364;52.622;7.746;2023-04-03T14:26:44;13.40;11.50
77305;DHT22;66364;52.622;7.746;2023-04-03T14:28:47;13.20;11.00
77305;DHT22;66364;52.622;7.746;2023-04-03T14:30:50;13.30;10.60
77305;DHT22;66364;52.622;7.746;2023-04-03T14:32:51;12.60;11.20
77305;DHT22;66364;52.622;7.746;2023-04-03T14:34:53;12.80;13.60
77305;DHT22;66364;52.622;7.746;2023-04-03T14:36:54;12.80;11.80
77305;DHT22;66364;52.622;7.746;2023-04-03T14:38:56;12.90;10.40
77305;DHT22;66364;52.622;7.746;2023-04-03T14:40:58;13.00;11.40
77305;DHT22;66364;52.622;7.746;2023-04-03T14:42:59;12.90;10.60
77305;DHT22;66364;52.622;7.746;2023-04-03T14:45:00;12.50;11.50